Time;durP1;ratioP1;P1;durP2;ratioP2;P2;SDS_P1;SDS_P2;PMS_P1;PMS_P2;Temp;Humidity;BMP_temperature;BMP_pressure;BME280_temperature;BME280_humidity;BME280_pressure;Samples;Min_cycle;Max_cycle;Signal;HPM_P1;HPM_P2
2023/03/04 00:02:04;;;;;;;;;;;22.20;74.50;;;;;;1882313;75;20238;-89
2023/03/04 00:04:34;;;;;;;;;;;22.30;74.60;;;;;;1883361;75;20223;-89
2023/03/04 00:07:04;;;;;;;;;;;22.30;74.50;;;;;;1882579;75;20175;-89
2023/03/04 00:09:34;;;;;;;;;;;22.30;74.40;;;;;;1878377;76;20144;-90
2023/03/04 00:12:07;;;;;;;;;;;22.30;74.30;;;;;;1879429;76;20187;-90
2023/03/04 00:14:37;;;;;;;;;;;22.30;74.10;;;;;;1877135;75;20199;-89
2023/03/04 00:17:07;;;;;;;;;;;22.30;73.50;;;;;;1877545;76;20128;-90
2023/03/04 00:19:37;;;;;;;;;;;22.30;74.20;;;;;;1877669;75;20226;-89
2023/03/04 00:22:08;;;;;;;;;;;22.30;74.40;;;;;;1834070;76;20137;-88
2023/03/04 00:24:38;;;;;;;;;;;22.30;74.20;;;;;;1800421;77;20130;-90
2023/03/04 00:27:08;;;;;;;;;;;22.30;74.30;;;;;;1830536;78;20190;-90
2023/03/04 00:29:41;;;;;;;;;;;22.40;74.50;;;;;;1850685;76;20182;-90
2023/03/04 00:32:15;;;;;;;;;;;22.40;74.10;;;;;;1847644;75;20422;-92
2023/03/04 00:34:44;;;;;;;;;;;22.40;74.10;;;;;;1849530;76;20190;-91
2023/03/04 00:37:14;;;;;;;;;;;22.40;73.90;;;;;;1849532;77;20212;-90
2023/03/04 00:39:44;;;;;;;;;;;22.50;73.90;;;;;;1849823;76;20262;-89
2023/03/04 00:42:14;;;;;;;;;;;22.50;73.90;;;;;;1849124;77;20217;-90
2023/03/04 00:44:48;;;;;;;;;;;22.50;74.40;;;;;;1844782;77;20632;-91
2023/03/04 00:47:20;;;;;;;;;;;22.60;74.20;;;;;;1895660;75;20548;-89
2023/03/04 00:49:52;;;;;;;;;;;22.60;73.40;;;;;;1908540;75;20115;-87
2023/03/04 00:52:22;;;;;;;;;;;22.70;73.90;;;;;;1887220;75;20601;-90
2023/03/04 00:54:52;;;;;;;;;;;22.70;74.40;;;;;;1885283;75;20175;-89
2023/03/04 01:03:40;;;;;;;;;;;22.90;72.50;;;;;;1894860;75;20217;-88
2023/03/04 01:06:10;;;;;;;;;;;23.00;72.70;;;;;;1867834;76;20191;-74
2023/03/04 01:08:41;;;;;;;;;;;23.00;73.00;;;;;;1874089;75;20186;-72
2023/03/04 01:11:11;;;;;;;;;;;23.00;73.30;;;;;;1864780;76;20180;-73
2023/03/04 01:16:48;;;;;;;;;;;23.10;72.80;;;;;;1895070;74;20670;-74
2023/03/04 01:19:39;;;;;;;;;;;;;;;;;;;;;
2023/03/04 01:22:07;;;;;;;;;;;23.10;72.90;;;;;;1816474;76;20341;-75
2023/03/04 01:24:57;;;;;;;;;;;23.20;73.00;;;;;;1890423;75;20168;-74
2023/03/04 01:27:27;;;;;;;;;;;23.20;72.70;;;;;;1911804;74;20571;-75
2023/03/04 01:30:02;;;;;;;;;;;23.30;72.70;;;;;;1901964;74;20208;-75
2023/03/04 01:32:32;;;;;;;;;;;23.30;72.80;;;;;;1906733;73;20182;-73
2023/03/04 01:35:03;;;;;;;;;;;23.40;72.80;;;;;;1906223;74;20177;-75
2023/03/04 01:37:32;;;;;;;;;;;23.40;72.60;;;;;;1899183;74;20229;-75
2023/03/04 01:40:04;;;;;;;;;;;23.40;72.50;;;;;;1884701;75;20168;-76
2023/03/04 01:42:35;;;;;;;;;;;23.40;72.60;;;;;;1901777;74;20211;-74
2023/03/04 01:45:06;;;;;;;;;;;23.40;73.00;;;;;;1914169;74;20189;-75
2023/03/04 01:47:35;;;;;;;;;;;23.40;72.80;;;;;;1894509;74;20597;-72
2023/03/04 01:50:07;;;;;;;;;;;23.40;72.80;;;;;;1910227;75;20195;-73
2023/03/04 01:52:39;;;;;;;;;;;23.50;72.90;;;;;;1896994;75;20237;-74
2023/03/04 01:55:13;;;;;;;;;;;23.50;73.20;;;;;;1898381;75;20235;-74
2023/03/04 01:57:44;;;;;;;;;;;23.50;73.00;;;;;;1916846;74;20161;-73
2023/03/04 02:00:23;;;;;;;;;;;23.50;73.20;;;;;;1889588;74;20556;-72
2023/03/04 02:02:55;;;;;;;;;;;23.60;73.30;;;;;;1896058;74;20225;-73
2023/03/04 02:05:26;;;;;;;;;;;23.60;73.50;;;;;;1901359;75;20210;-74
2023/03/04 02:07:57;;;;;;;;;;;23.60;73.50;;;;;;1910188;74;20193;-75
2023/03/04 02:10:27;;;;;;;;;;;23.70;73.40;;;;;;1905815;74;20174;-75
2023/03/04 02:12:58;;;;;;;;;;;23.70;73.10;;;;;;1903756;75;20184;-74
2023/03/04 02:15:29;;;;;;;;;;;23.80;73.20;;;;;;1887092;74;20306;-75
2023/03/04 02:17:59;;;;;;;;;;;23.80;73.00;;;;;;1901540;73;20256;-75
2023/03/04 02:20:36;;;;;;;;;;;23.90;73.20;;;;;;1906865;74;20189;-74
2023/03/04 02:23:08;;;;;;;;;;;24.00;73.00;;;;;;1904988;75;20166;-74
2023/03/04 02:25:39;;;;;;;;;;;24.00;72.80;;;;;;1902525;73;20490;-74
2023/03/04 02:31:03;;;;;;;;;;;24.10;72.90;;;;;;1888310;73;20169;-74
2023/03/04 02:37:01;;;;;;;;;;;24.20;72.60;;;;;;1875576;75;20206;-76
2023/03/04 02:39:35;;;;;;;;;;;24.40;72.30;;;;;;1899755;73;20171;-75
2023/03/04 02:42:07;;;;;;;;;;;24.60;71.40;;;;;;1905632;74;20537;-75
2023/03/04 02:44:38;;;;;;;;;;;24.70;70.40;;;;;;1890927;74;20673;-74
2023/03/04 02:47:09;;;;;;;;;;;24.80;69.60;;;;;;1898727;75;20173;-74
2023/03/04 02:49:43;;;;;;;;;;;24.90;69.00;;;;;;1894148;73;20234;-75
2023/03/04 02:52:14;;;;;;;;;;;25.00;69.00;;;;;;1906912;75;20426;-76
2023/03/04 02:54:44;;;;;;;;;;;25.10;68.50;;;;;;1905467;73;20198;-75
2023/03/04 02:57:15;;;;;;;;;;;25.20;68.00;;;;;;1899558;75;20451;-76
2023/03/04 02:59:45;;;;;;;;;;;25.30;68.00;;;;;;1866678;76;20695;-76
2023/03/04 03:02:16;;;;;;;;;;;25.40;67.90;;;;;;1902975;73;20218;-75
2023/03/04 03:04:46;;;;;;;;;;;25.50;67.40;;;;;;1913028;73;20216;-76
2023/03/04 03:07:17;;;;;;;;;;;25.60;67.00;;;;;;1874469;75;20244;-75
2023/03/04 03:09:48;;;;;;;;;;;25.70;66.50;;;;;;1840730;76;20473;-75
2023/03/04 03:12:18;;;;;;;;;;;25.80;66.50;;;;;;1867529;75;20310;-74
2023/03/04 03:14:48;;;;;;;;;;;25.90;65.90;;;;;;1885035;75;20570;-73
2023/03/04 03:17:18;;;;;;;;;;;25.90;64.90;;;;;;1869488;75;20213;-74
2023/03/04 03:19:49;;;;;;;;;;;26.00;64.60;;;;;;1903983;73;20277;-73
2023/03/04 03:22:18;;;;;;;;;;;26.00;65.20;;;;;;1911064;73;20159;-73
2023/03/04 03:24:48;;;;;;;;;;;26.20;64.80;;;;;;1904304;73;20194;-74
2023/03/04 03:27:19;;;;;;;;;;;26.30;63.90;;;;;;1909802;73;20201;-74
2023/03/04 03:35:29;;;;;;;;;;;26.60;63.60;;;;;;1829273;76;20186;-75
2023/03/04 03:37:59;;;;;;;;;;;26.70;62.90;;;;;;1826634;76;20174;-74
2023/03/04 03:40:28;;;;;;;;;;;26.80;62.40;;;;;;1843506;76;20284;-74
2023/03/04 03:42:58;;;;;;;;;;;26.80;62.50;;;;;;1836621;76;20182;-74
2023/03/04 03:45:32;;;;;;;;;;;26.80;62.40;;;;;;1823035;76;20168;-74
2023/03/04 03:48:05;;;;;;;;;;;26.90;62.80;;;;;;1776351;78;20186;-75
2023/03/04 03:50:35;;;;;;;;;;;27.00;62.10;;;;;;1833162;76;20239;-74
2023/03/04 03:53:05;;;;;;;;;;;27.10;62.00;;;;;;1839693;76;20337;-74
2023/03/04 03:55:35;;;;;;;;;;;27.10;61.20;;;;;;1829980;76;20188;-75
2023/03/04 03:58:05;;;;;;;;;;;27.20;60.60;;;;;;1831596;76;20218;-74
2023/03/04 04:00:35;;;;;;;;;;;27.30;60.30;;;;;;1836694;76;20189;-75
2023/03/04 04:03:05;;;;;;;;;;;27.40;60.50;;;;;;1824566;76;20807;-76
2023/03/04 04:05:35;;;;;;;;;;;27.40;60.90;;;;;;1833917;76;20232;-74
2023/03/04 04:11:01;;;;;;;;;;;27.50;60.00;;;;;;1751763;76;20492;-73
2023/03/04 04:13:37;;;;;;;;;;;27.60;59.20;;;;;;1838447;76;20215;-74
2023/03/04 04:16:08;;;;;;;;;;;27.70;58.80;;;;;;1836144;76;20234;-74
2023/03/04 04:18:40;;;;;;;;;;;27.80;58.90;;;;;;1838158;76;20579;-74
2023/03/04 04:21:27;;;;;;;;;;;27.90;59.10;;;;;;1862507;76;20275;-75
2023/03/04 04:26:47;;;;;;;;;;;28.10;59.10;;;;;;1811569;78;20202;-75
2023/03/04 04:29:38;;;;;;;;;;;;;;;;;;;;;
2023/03/04 04:32:18;;;;;;;;;;;28.20;58.20;;;;;;1802093;78;20218;-75
2023/03/04 04:34:50;;;;;;;;;;;28.30;57.80;;;;;;1848285;77;20314;-76
2023/03/04 04:37:22;;;;;;;;;;;28.30;57.30;;;;;;1846279;77;20201;-75
2023/03/04 04:39:54;;;;;;;;;;;28.40;57.20;;;;;;1854455;76;20270;-76
2023/03/04 04:42:23;;;;;;;;;;;28.40;57.40;;;;;;1861602;76;20270;-75
2023/03/04 04:44:53;;;;;;;;;;;28.40;57.60;;;;;;1851715;77;20595;-75
2023/03/04 04:47:23;;;;;;;;;;;28.50;57.90;;;;;;1845698;77;20497;-77
2023/03/04 04:49:53;;;;;;;;;;;28.50;57.90;;;;;;1847929;76;20237;-76
2023/03/04 04:52:24;;;;;;;;;;;28.60;58.20;;;;;;1846797;75;20342;-76
2023/03/04 04:54:54;;;;;;;;;;;28.70;57.80;;;;;;1850081;77;20192;-76
2023/03/04 04:57:24;;;;;;;;;;;28.70;57.30;;;;;;1849973;77;20263;-76
2023/03/04 04:59:54;;;;;;;;;;;28.70;57.70;;;;;;1841727;77;20174;-76
2023/03/04 05:02:25;;;;;;;;;;;28.70;57.70;;;;;;1846505;77;20226;-76
2023/03/04 05:05:23;;;;;;;;;;;28.90;57.40;;;;;;1850484;77;20202;-75
2023/03/04 05:07:50;;;;;;;;;;;28.90;57.20;;;;;;1839109;77;20430;-72
2023/03/04 05:10:20;;;;;;;;;;;29.00;56.60;;;;;;1844148;77;20261;-73
2023/03/04 05:12:50;;;;;;;;;;;29.00;56.30;;;;;;1846777;76;20216;-73
2023/03/04 05:15:20;;;;;;;;;;;29.10;56.70;;;;;;1839463;77;20195;-74
2023/03/04 05:17:50;;;;;;;;;;;29.10;56.70;;;;;;1844773;77;20227;-74
2023/03/04 05:20:22;;;;;;;;;;;29.10;56.50;;;;;;1842314;77;20206;-74
2023/03/04 05:22:52;;;;;;;;;;;29.10;56.50;;;;;;1843171;77;20191;-73
2023/03/04 05:25:22;;;;;;;;;;;29.10;56.50;;;;;;1849630;76;20169;-73
2023/03/04 05:28:03;;;;;;;;;;;29.20;56.30;;;;;;1889183;74;20254;-73
2023/03/04 05:30:30;;;;;;;;;;;29.30;55.90;;;;;;1885850;74;20181;-73
2023/03/04 05:33:01;;;;;;;;;;;29.40;56.90;;;;;;1889436;74;20190;-74
2023/03/04 05:35:31;;;;;;;;;;;29.40;55.50;;;;;;1889328;74;20265;-74
2023/03/04 05:38:01;;;;;;;;;;;29.40;55.50;;;;;;1895704;74;20511;-74
2023/03/04 05:40:31;;;;;;;;;;;29.40;56.60;;;;;;1826610;77;20218;-72
2023/03/04 05:43:28;;;;;;;;;;;29.40;55.60;;;;;;1863311;75;20222;-74
2023/03/04 05:45:57;;;;;;;;;;;29.40;55.70;;;;;;1871187;75;20194;-73
2023/03/04 05:48:28;;;;;;;;;;;29.50;55.40;;;;;;1869255;75;20231;-73
2023/03/04 05:51:01;;;;;;;;;;;29.60;55.20;;;;;;1873784;75;20176;-72
2023/03/04 05:53:32;;;;;;;;;;;29.60;55.30;;;;;;1813025;77;20224;-74
2023/03/04 05:59:28;;;;;;;;;;;29.70;54.40;;;;;;1790480;76;20309;-72
2023/03/04 06:01:58;;;;;;;;;;;29.70;54.60;;;;;;1873279;75;20292;-75
2023/03/04 06:04:28;;;;;;;;;;;29.70;54.90;;;;;;1877268;75;20336;-76
2023/03/04 06:06:59;;;;;;;;;;;29.80;55.00;;;;;;1875116;75;20429;-75
2023/03/04 06:09:38;;;;;;;;;;;29.80;54.10;;;;;;1869236;75;20204;-76
2023/03/04 06:12:36;;;;;;;;;;;29.80;54.50;;;;;;1873985;75;20192;-76
2023/03/04 06:21:02;;;;;;;;;;;29.80;54.40;;;;;;1739977;80;20671;-77
2023/03/04 06:23:36;;;;;;;;;;;29.80;54.50;;;;;;1864153;76;20188;-76
2023/03/04 06:26:14;;;;;;;;;;;29.80;54.00;;;;;;1856062;75;20245;-75
2023/03/04 06:28:45;;;;;;;;;;;29.90;53.90;;;;;;1869220;75;20231;-75
2023/03/04 06:31:24;;;;;;;;;;;29.90;54.00;;;;;;1862462;75;20249;-77
2023/03/04 06:33:55;;;;;;;;;;;30.00;54.20;;;;;;1862984;76;20222;-76
2023/03/04 06:36:25;;;;;;;;;;;30.00;53.90;;;;;;1895051;74;20216;-76
2023/03/04 06:38:55;;;;;;;;;;;30.10;53.80;;;;;;1891243;74;20331;-78
2023/03/04 06:41:25;;;;;;;;;;;30.10;53.40;;;;;;1893203;75;20580;-78
2023/03/04 06:43:55;;;;;;;;;;;30.00;53.30;;;;;;1892140;74;20206;-76
2023/03/04 06:46:25;;;;;;;;;;;30.00;53.50;;;;;;1889485;74;20242;-78
2023/03/04 06:48:56;;;;;;;;;;;30.00;54.00;;;;;;1888958;74;20246;-76
2023/03/04 06:51:27;;;;;;;;;;;30.00;53.90;;;;;;1886656;74;20171;-78
2023/03/04 06:53:56;;;;;;;;;;;30.00;53.80;;;;;;1893854;74;20599;-77
2023/03/04 06:56:26;;;;;;;;;;;30.00;53.10;;;;;;1892091;74;20176;-78
2023/03/04 06:58:56;;;;;;;;;;;30.00;53.30;;;;;;1862765;76;20186;-77
2023/03/04 07:01:27;;;;;;;;;;;30.00;53.30;;;;;;1881652;74;20427;-77
2023/03/04 07:03:57;;;;;;;;;;;30.10;53.30;;;;;;1830908;77;20180;-78
2023/03/04 07:06:28;;;;;;;;;;;30.00;53.10;;;;;;1869705;76;20597;-80
2023/03/04 07:09:02;;;;;;;;;;;30.00;53.40;;;;;;1892694;74;20582;-78
2023/03/04 07:11:31;;;;;;;;;;;30.00;53.10;;;;;;1893304;74;20245;-76
2023/03/04 07:14:03;;;;;;;;;;;30.00;52.90;;;;;;1890177;74;20174;-80
2023/03/04 07:19:22;;;;;;;;;;;30.10;53.90;;;;;;1902404;73;20167;-76
2023/03/04 07:21:54;;;;;;;;;;;30.10;52.70;;;;;;1845937;77;20164;-77
2023/03/04 07:24:26;;;;;;;;;;;30.10;53.00;;;;;;1908797;73;20337;-75
2023/03/04 07:26:56;;;;;;;;;;;30.10;52.80;;;;;;1857597;75;20185;-78
2023/03/04 07:29:26;;;;;;;;;;;30.00;52.60;;;;;;1878048;75;20245;-77
2023/03/04 07:32:02;;;;;;;;;;;30.00;53.10;;;;;;1850106;76;20293;-77
2023/03/04 07:34:38;;;;;;;;;;;30.00;52.50;;;;;;1860773;75;20511;-78
2023/03/04 07:37:17;;;;;;;;;;;30.00;52.90;;;;;;1860619;75;20188;-78
2023/03/04 07:39:47;;;;;;;;;;;30.00;53.50;;;;;;1873019;74;20292;-77
2023/03/04 07:42:26;;;;;;;;;;;30.00;53.10;;;;;;1908422;73;20230;-77
2023/03/04 07:44:54;;;;;;;;;;;30.00;53.10;;;;;;1909695;73;20191;-77
2023/03/04 07:51:10;;;;;;;;;;;30.00;53.80;;;;;;1833293;77;20247;-76
2023/03/04 07:53:37;;;;;;;;;;;30.00;53.30;;;;;;1815783;77;20496;-75
2023/03/04 07:59:55;;;;;;;;;;;30.00;52.90;;;;;;1758766;80;20185;-78
2023/03/04 08:02:32;;;;;;;;;;;30.00;53.50;;;;;;1702578;84;20150;-76
2023/03/04 08:05:05;;;;;;;;;;;29.90;53.70;;;;;;1848705;74;20390;-77
2023/03/04 08:07:34;;;;;;;;;;;29.90;53.70;;;;;;1879234;74;20305;-75
2023/03/04 08:10:08;;;;;;;;;;;29.80;54.00;;;;;;1911177;73;20222;-75
2023/03/04 08:12:38;;;;;;;;;;;29.80;54.20;;;;;;1918353;73;20197;-77
2023/03/04 08:15:09;;;;;;;;;;;29.80;53.90;;;;;;1906426;73;20241;-76
2023/03/04 08:17:39;;;;;;;;;;;29.90;53.90;;;;;;1907528;73;20836;-76
2023/03/04 08:20:09;;;;;;;;;;;29.80;53.90;;;;;;1913033;73;20242;-75
2023/03/04 08:22:39;;;;;;;;;;;29.80;54.10;;;;;;1874805;74;20268;-75
2023/03/04 08:25:09;;;;;;;;;;;29.90;54.20;;;;;;1880275;74;20224;-76
2023/03/04 08:27:41;;;;;;;;;;;29.80;54.30;;;;;;1885677;74;20209;-75
2023/03/04 08:30:11;;;;;;;;;;;29.90;54.30;;;;;;1892325;74;20231;-75
2023/03/04 08:32:42;;;;;;;;;;;29.80;53.50;;;;;;1872770;74;20395;-76
2023/03/04 08:35:14;;;;;;;;;;;29.80;53.70;;;;;;1877497;74;20171;-74
2023/03/04 08:40:33;;;;;;;;;;;29.80;53.70;;;;;;1846748;75;20129;-77
2023/03/04 08:43:05;;;;;;;;;;;29.70;53.90;;;;;;1880791;74;20242;-75
2023/03/04 08:45:38;;;;;;;;;;;29.70;54.40;;;;;;1877649;74;20160;-77
2023/03/04 08:48:08;;;;;;;;;;;29.70;54.00;;;;;;1883680;74;20256;-75
2023/03/04 08:50:38;;;;;;;;;;;29.70;54.80;;;;;;1886065;74;20228;-76
2023/03/04 08:53:12;;;;;;;;;;;29.70;54.80;;;;;;1880403;74;20340;-77
2023/03/04 08:55:42;;;;;;;;;;;29.70;54.70;;;;;;1852994;76;20711;-75
2023/03/04 08:58:21;;;;;;;;;;;29.70;54.60;;;;;;1877989;74;20263;-75
2023/03/04 09:00:52;;;;;;;;;;;29.70;54.90;;;;;;1875144;74;20201;-77
2023/03/04 09:03:21;;;;;;;;;;;29.70;54.40;;;;;;1876963;74;20313;-77
2023/03/04 09:05:52;;;;;;;;;;;29.60;54.90;;;;;;1878641;74;20183;-74
2023/03/04 09:08:22;;;;;;;;;;;29.60;54.80;;;;;;1885991;74;20583;-77
2023/03/04 09:10:53;;;;;;;;;;;29.60;54.60;;;;;;1914472;73;20282;-76
2023/03/04 09:13:29;;;;;;;;;;;29.60;55.00;;;;;;1911002;73;20457;-75
2023/03/04 09:16:00;;;;;;;;;;;29.50;55.00;;;;;;1902774;73;20182;-77
2023/03/04 09:18:31;;;;;;;;;;;29.60;54.50;;;;;;1832405;76;20181;-77
2023/03/04 09:21:01;;;;;;;;;;;29.50;54.20;;;;;;1865343;76;20630;-78
2023/03/04 09:23:34;;;;;;;;;;;29.50;54.60;;;;;;1878674;76;20132;-92
2023/03/04 09:26:23;;;;;;;;;;;29.50;55.00;;;;;;1861692;76;20110;-94
2023/03/04 09:29:02;;;;;;;;;;;29.50;54.50;;;;;;1864694;75;20139;-92
2023/03/04 09:32:01;;;;;;;;;;;29.50;54.90;;;;;;1832774;76;20223;-92
2023/03/04 09:38:29;;;;;;;;;;;29.40;55.30;;;;;;1722580;82;20241;-92
2023/03/04 09:40:59;;;;;;;;;;;29.40;55.10;;;;;;1745093;81;20154;-93
2023/03/04 09:43:30;;;;;;;;;;;29.40;55.50;;;;;;1743487;81;20253;-93
2023/03/04 09:46:02;;;;;;;;;;;29.40;55.50;;;;;;1750914;81;20245;-92
2023/03/04 09:48:33;;;;;;;;;;;29.30;55.40;;;;;;1756398;81;20705;-93
2023/03/04 09:51:13;;;;;;;;;;;29.30;55.30;;;;;;1746409;81;20150;-94
2023/03/04 09:56:48;;;;;;;;;;;29.20;55.60;;;;;;1700417;83;20185;-94
2023/03/04 09:59:28;;;;;;;;;;;29.20;55.90;;;;;;1683159;84;20158;-94
2023/03/04 10:02:02;;;;;;;;;;;29.20;55.70;;;;;;1728212;81;20254;-92
2023/03/04 10:04:39;;;;;;;;;;;29.10;55.70;;;;;;1755925;81;20403;-89
2023/03/04 10:07:11;;;;;;;;;;;29.10;55.80;;;;;;1764265;81;20140;-92
2023/03/04 10:09:42;;;;;;;;;;;29.10;56.00;;;;;;1730839;81;20141;-93
2023/03/04 10:12:22;;;;;;;;;;;29.00;56.10;;;;;;1765153;81;20183;-92
2023/03/04 10:14:56;;;;;;;;;;;29.00;56.20;;;;;;1821836;76;20207;-93
2023/03/04 10:17:31;;;;;;;;;;;29.00;56.20;;;;;;1870542;76;20162;-93
2023/03/04 10:23:00;;;;;;;;;;;28.90;56.40;;;;;;1948085;73;20124;-92
2023/03/04 10:36:45;;;;;;;;;;;28.80;58.00;;;;;;1913770;75;20224;-92
2023/03/04 10:38:59;;;;;;;;;;;28.70;58.00;;;;;;1847889;75;20444;-94
2023/03/04 10:42:14;;;;;;;;;;;;;;;;;;;;;
2023/03/04 10:54:47;;;;;;;;;;;28.60;58.40;;;;;;1669925;86;20242;-94
2023/03/04 10:57:25;;;;;;;;;;;28.50;58.50;;;;;;1716092;83;20150;-93
2023/03/04 10:59:57;;;;;;;;;;;28.40;58.60;;;;;;1719159;83;20146;-94
2023/03/04 11:02:36;;;;;;;;;;;28.40;58.60;;;;;;1724095;83;20141;-94
2023/03/04 11:05:27;;;;;;;;;;;28.30;58.50;;;;;;1723517;83;20405;-95
2023/03/04 11:07:59;;;;;;;;;;;28.30;58.60;;;;;;1720803;80;20167;-93
2023/03/04 11:10:32;;;;;;;;;;;28.30;58.70;;;;;;1716579;83;20145;-95
2023/03/04 11:19:46;;;;;;;;;;;28.20;58.90;;;;;;1791542;77;20229;-93
2023/03/04 11:25:10;;;;;;;;;;;28.10;59.10;;;;;;1848529;76;20193;-93
2023/03/04 11:28:13;;;;;;;;;;;;;;;;;;;;;
2023/03/04 11:30:50;;;;;;;;;;;28.00;59.40;;;;;;1820822;78;20132;-92
2023/03/04 11:33:29;;;;;;;;;;;28.00;59.50;;;;;;1850948;77;20119;-94
2023/03/04 11:42:18;;;;;;;;;;;;;;;;;;;;;
2023/03/04 11:48:41;;;;;;;;;;;27.80;59.60;;;;;;1827523;77;20210;-90
2023/03/04 11:51:22;;;;;;;;;;;27.80;59.50;;;;;;1792153;79;20185;-94
2023/03/04 11:53:56;;;;;;;;;;;27.80;59.70;;;;;;1841171;77;20123;-93
2023/03/04 11:59:52;;;;;;;;;;;27.70;59.90;;;;;;1882979;75;20161;-92
2023/03/04 12:02:29;;;;;;;;;;;27.70;59.90;;;;;;1896125;76;20116;-92
2023/03/04 12:05:04;;;;;;;;;;;27.70;59.90;;;;;;1877502;73;20164;-92
2023/03/04 12:08:09;;;;;;;;;;;27.60;59.90;;;;;;1865585;75;20221;-91
2023/03/04 12:10:43;;;;;;;;;;;27.60;60.00;;;;;;1896428;74;20214;-93
2023/03/04 12:13:25;;;;;;;;;;;27.60;60.20;;;;;;1877886;75;20175;-92
2023/03/04 12:16:08;;;;;;;;;;;27.60;60.10;;;;;;1900011;74;20197;-92
2023/03/04 12:18:44;;;;;;;;;;;27.60;60.40;;;;;;1879546;74;20215;-92
2023/03/04 12:21:28;;;;;;;;;;;27.50;60.50;;;;;;1877371;74;20491;-91
2023/03/04 12:26:43;;;;;;;;;;;27.50;60.20;;;;;;1835407;76;20147;-93
2023/03/04 12:29:29;;;;;;;;;;;27.50;60.60;;;;;;1828588;77;20140;-92
2023/03/04 12:32:18;;;;;;;;;;;27.50;60.80;;;;;;1771039;80;20225;-92
2023/03/04 12:37:59;;;;;;;;;;;27.40;60.80;;;;;;1788571;76;20181;-92
2023/03/04 12:40:30;;;;;;;;;;;27.30;60.60;;;;;;1864841;76;20195;-90
2023/03/04 12:43:13;;;;;;;;;;;27.30;60.80;;;;;;1847401;75;20191;-93
2023/03/04 12:45:44;;;;;;;;;;;27.30;60.90;;;;;;1845301;73;20529;-93
2023/03/04 12:55:01;;;;;;;;;;;;;;;;;;;;;
2023/03/04 12:57:39;;;;;;;;;;;27.20;61.10;;;;;;1768532;81;20175;-93
2023/03/04 13:00:28;;;;;;;;;;;27.10;61.20;;;;;;1797704;79;20138;-92
2023/03/04 13:03:56;;;;;;;;;;;;;;;;;;;;;
2023/03/04 13:06:25;;;;;;;;;;;27.10;61.40;;;;;;1850350;76;20154;-93
2023/03/04 13:09:18;;;;;;;;;;;27.00;61.60;;;;;;1844481;74;20136;-88
2023/03/04 13:15:45;;;;;;;;;;;27.00;61.60;;;;;;1789945;79;20337;-88
2023/03/04 13:18:18;;;;;;;;;;;26.90;61.60;;;;;;1748095;80;20184;-87
2023/03/04 13:21:06;;;;;;;;;;;26.90;61.90;;;;;;1781775;78;20135;-88
2023/03/04 13:23:42;;;;;;;;;;;26.90;62.00;;;;;;1782705;77;20209;-88
2023/03/04 13:32:15;;;;;;;;;;;26.80;62.20;;;;;;1765590;80;20216;-88
2023/03/04 13:34:55;;;;;;;;;;;26.80;62.30;;;;;;1808431;77;20363;-88
2023/03/04 13:37:28;;;;;;;;;;;26.70;62.30;;;;;;1817533;77;20260;-88
2023/03/04 13:40:15;;;;;;;;;;;26.70;62.30;;;;;;1787009;80;20225;-87
2023/03/04 13:42:55;;;;;;;;;;;26.70;62.10;;;;;;1787472;78;20529;-88
2023/03/04 13:45:44;;;;;;;;;;;26.60;62.40;;;;;;1838869;76;20225;-87
2023/03/04 13:48:26;;;;;;;;;;;26.60;62.60;;;;;;1816075;76;20190;-88
2023/03/04 13:51:14;;;;;;;;;;;;;;;;;;;;;
2023/03/04 14:03:17;;;;;;;;;;;26.40;62.80;;;;;;1683248;83;20330;-89
2023/03/04 14:08:59;;;;;;;;;;;26.40;63.60;;;;;;1681513;83;20193;-89
2023/03/04 14:11:31;;;;;;;;;;;26.40;63.60;;;;;;1747057;81;20265;-88
2023/03/04 14:14:02;;;;;;;;;;;26.30;63.70;;;;;;1749032;81;20785;-89
2023/03/04 14:16:34;;;;;;;;;;;26.30;63.70;;;;;;1715476;82;20330;-88
2023/03/04 14:19:55;;;;;;;;;;;26.30;64.00;;;;;;1705491;84;20202;-88
2023/03/04 14:22:26;;;;;;;;;;;26.30;63.80;;;;;;1739276;81;20309;-88
2023/03/04 14:27:44;;;;;;;;;;;26.20;64.60;;;;;;1731561;81;20492;-88
2023/03/04 14:30:36;;;;;;;;;;;26.10;64.40;;;;;;1697882;84;20616;-89
2023/03/04 14:33:11;;;;;;;;;;;26.10;64.50;;;;;;1696078;83;20202;-87
2023/03/04 14:35:43;;;;;;;;;;;26.10;64.40;;;;;;1692586;83;20288;-88
2023/03/04 14:38:20;;;;;;;;;;;26.10;64.20;;;;;;1701141;83;20304;-89
2023/03/04 14:40:51;;;;;;;;;;;26.10;64.40;;;;;;1733741;81;20180;-86
2023/03/04 14:43:22;;;;;;;;;;;26.00;64.40;;;;;;1770454;79;20217;-87
2023/03/04 14:45:53;;;;;;;;;;;26.10;64.40;;;;;;1791196;80;20150;-88
2023/03/04 14:48:24;;;;;;;;;;;26.00;64.50;;;;;;1796127;80;20250;-87
2023/03/04 14:50:55;;;;;;;;;;;26.00;64.50;;;;;;1791386;80;20262;-87
2023/03/04 14:53:26;;;;;;;;;;;25.90;64.60;;;;;;1757129;82;20304;-87
2023/03/04 14:59:14;;;;;;;;;;;25.90;64.50;;;;;;1751362;80;20133;-86
2023/03/04 15:01:44;;;;;;;;;;;25.90;64.90;;;;;;1783067;80;20348;-86
2023/03/04 15:04:22;;;;;;;;;;;25.80;64.90;;;;;;1773899;80;20535;-85
2023/03/04 15:06:53;;;;;;;;;;;25.90;65.10;;;;;;1780325;77;20363;-86
2023/03/04 15:09:27;;;;;;;;;;;25.80;65.20;;;;;;1863613;76;20221;-87
2023/03/04 15:11:58;;;;;;;;;;;25.80;65.40;;;;;;1836904;77;20555;-88
2023/03/04 15:14:45;;;;;;;;;;;25.70;65.40;;;;;;1826493;77;20249;-87
2023/03/04 15:17:36;;;;;;;;;;;25.70;65.30;;;;;;1828801;77;20442;-86
2023/03/04 15:20:03;;;;;;;;;;;25.70;65.50;;;;;;1860718;77;20241;-86
2023/03/04 15:22:37;;;;;;;;;;;25.70;65.50;;;;;;1833507;73;20585;-87
2023/03/04 15:25:08;;;;;;;;;;;25.60;65.40;;;;;;1821965;77;20176;-87
2023/03/04 15:27:40;;;;;;;;;;;25.60;65.00;;;;;;1852959;76;20170;-86
2023/03/04 15:30:17;;;;;;;;;;;25.60;65.80;;;;;;1861150;75;20169;-86
2023/03/04 15:32:47;;;;;;;;;;;25.50;65.80;;;;;;1861909;77;20225;-86
2023/03/04 15:35:17;;;;;;;;;;;25.50;65.80;;;;;;1861961;77;20173;-86
2023/03/04 15:37:48;;;;;;;;;;;25.50;65.80;;;;;;1845753;77;20590;-86
2023/03/04 15:40:22;;;;;;;;;;;25.50;66.00;;;;;;1826490;77;20307;-86
2023/03/04 15:42:52;;;;;;;;;;;25.50;65.90;;;;;;1854469;77;20235;-87
2023/03/04 15:45:35;;;;;;;;;;;25.50;65.80;;;;;;1859466;77;20717;-88
2023/03/04 15:48:09;;;;;;;;;;;25.40;66.00;;;;;;1835506;76;20195;-87
2023/03/04 15:50:40;;;;;;;;;;;25.40;66.30;;;;;;1845949;77;20199;-88
2023/03/04 15:53:17;;;;;;;;;;;25.40;66.30;;;;;;1845136;75;20197;-88
2023/03/04 15:55:47;;;;;;;;;;;25.40;66.40;;;;;;1862409;77;20681;-87
2023/03/04 15:58:17;;;;;;;;;;;25.30;66.20;;;;;;1857137;77;20241;-87
2023/03/04 16:00:46;;;;;;;;;;;25.30;66.30;;;;;;1863388;76;20216;-88
2023/03/04 16:03:17;;;;;;;;;;;25.30;66.30;;;;;;1859466;77;20197;-89
2023/03/04 16:05:48;;;;;;;;;;;25.30;66.60;;;;;;1866386;74;20369;-88
2023/03/04 16:08:19;;;;;;;;;;;25.30;66.60;;;;;;1847614;76;20230;-87
2023/03/04 16:10:50;;;;;;;;;;;25.30;66.40;;;;;;1861374;76;20441;-87
2023/03/04 16:13:21;;;;;;;;;;;25.20;66.60;;;;;;1844477;77;20256;-88
2023/03/04 16:15:51;;;;;;;;;;;25.20;66.80;;;;;;1846598;77;20209;-87
2023/03/04 16:18:22;;;;;;;;;;;25.20;67.00;;;;;;1848925;76;20225;-88
2023/03/04 16:20:52;;;;;;;;;;;25.20;66.90;;;;;;1856695;76;20363;-88
2023/03/04 16:23:23;;;;;;;;;;;25.10;67.00;;;;;;1843919;77;20240;-87
2023/03/04 16:25:54;;;;;;;;;;;25.10;67.10;;;;;;1846272;77;20260;-87
2023/03/04 16:28:24;;;;;;;;;;;25.00;67.30;;;;;;1838211;77;20195;-87
2023/03/04 16:30:54;;;;;;;;;;;25.00;67.20;;;;;;1849744;77;20186;-86
2023/03/04 16:33:24;;;;;;;;;;;25.00;67.50;;;;;;1850618;77;20170;-88
2023/03/04 16:35:53;;;;;;;;;;;25.00;67.90;;;;;;1845228;77;20197;-88
2023/03/04 16:38:25;;;;;;;;;;;24.90;67.90;;;;;;1843880;77;20174;-90
2023/03/04 16:40:55;;;;;;;;;;;24.90;67.90;;;;;;1818437;79;20327;-89
2023/03/04 16:43:25;;;;;;;;;;;24.80;68.10;;;;;;1818521;79;20208;-88
2023/03/04 16:45:55;;;;;;;;;;;24.90;67.80;;;;;;1834787;77;20219;-88
2023/03/04 16:48:25;;;;;;;;;;;24.80;68.30;;;;;;1835027;78;20191;-88
2023/03/04 16:50:58;;;;;;;;;;;24.80;68.50;;;;;;1846219;77;20226;-88
2023/03/04 16:53:31;;;;;;;;;;;24.80;68.30;;;;;;1857331;76;20202;-87
2023/03/04 16:56:02;;;;;;;;;;;24.80;68.40;;;;;;1877976;76;20222;-88
2023/03/04 16:58:31;;;;;;;;;;;24.70;68.50;;;;;;1872318;76;20256;-87
2023/03/04 17:01:01;;;;;;;;;;;24.70;68.70;;;;;;1868648;76;20183;-88
2023/03/04 17:03:31;;;;;;;;;;;24.70;68.90;;;;;;1871382;76;20348;-87
2023/03/04 17:06:01;;;;;;;;;;;24.70;69.00;;;;;;1859984;76;20342;-87
2023/03/04 17:08:30;;;;;;;;;;;24.70;69.00;;;;;;1870228;75;20237;-89
2023/03/04 17:11:00;;;;;;;;;;;24.60;69.30;;;;;;1874346;76;20541;-88
2023/03/04 17:13:30;;;;;;;;;;;24.60;69.40;;;;;;1865058;76;20197;-88
2023/03/04 17:16:01;;;;;;;;;;;24.60;69.80;;;;;;1866332;76;20214;-87
2023/03/04 17:18:30;;;;;;;;;;;24.60;70.10;;;;;;1863467;77;20212;-88
2023/03/04 17:21:04;;;;;;;;;;;24.60;70.10;;;;;;1875432;76;20218;-87
2023/03/04 17:23:34;;;;;;;;;;;24.50;70.00;;;;;;1867388;76;20244;-87
2023/03/04 17:26:04;;;;;;;;;;;24.50;70.20;;;;;;1863880;76;20203;-87
2023/03/04 17:28:34;;;;;;;;;;;24.50;70.40;;;;;;1864910;76;20240;-88